Southgate, Michigan
Current Conditions -  °F | °C
As of 12:53 AM on Monday 20 Oct 2014 (Local Time) from KDTW Reporting Station
Overcast Overcast  
Wind Chill: 45°   Ceiling: 8000
Heat Index: 47°   Visibility: 10mi
Dew Point: 36°   Wind: 5mph
Humidity: 66%   Direction: 190°S
Pressure: 29.98"   Gusts: NA
Location:  42.2°N, 83.21°W
Report Text: KDTW 200453Z 19004KT 10SM BKN080 OVC130 08/02 A2998 RMK AO2 SLP154 T00830022 401170000
Loading
Personal Weather Stations






























Interactive Weather Map
Tropical Storm Tracking
New forecast layout! Learn more

10-Day Weather Forecast

Advertisements
Track Severe Weather on mobile